Time;durP1;ratioP1;P1;durP2;ratioP2;P2;SDS_P1;SDS_P2;PMS_P1;PMS_P2;Temp;Humidity;BMP_temperature;BMP_pressure;BME280_temperature;BME280_humidity;BME280_pressure;Samples;Min_cycle;Max_cycle;Signal;HPM_P1;HPM_P2
2022/06/23 00:01:15;;;;;;;0.50;0.30;;;18.90;99.60;;;;;;5078215;28;20436;-82
2022/06/23 00:03:42;;;;;;;0.50;0.37;;;18.90;99.40;;;;;;5079604;28;20526;-82
2022/06/23 00:06:30;;;;;;;0.50;0.30;;;18.80;99.90;;;;;;5079291;28;20952;-81
2022/06/23 00:08:57;;;;;;;0.50;0.30;;;18.90;99.90;;;;;;5078809;28;20561;-83
2022/06/23 00:11:27;;;;;;;0.50;0.40;;;18.80;99.90;;;;;;5078864;28;20538;-82
2022/06/23 00:14:07;;;;;;;0.50;0.40;;;18.70;99.90;;;;;;5078488;28;20436;-82
2022/06/23 00:16:34;;;;;;;0.50;0.30;;;18.70;99.90;;;;;;5078068;28;20515;-82
2022/06/23 00:19:01;;;;;;;0.50;0.40;;;18.70;99.90;;;;;;5078167;28;20503;-82
2022/06/23 00:21:34;;;;;;;0.50;0.30;;;18.70;99.90;;;;;;5077774;28;20538;-83
2022/06/23 00:24:04;;;;;;;0.50;0.30;;;18.70;99.90;;;;;;5078146;28;20424;-82
2022/06/23 00:26:34;;;;;;;0.50;0.30;;;18.60;99.90;;;;;;5078072;28;20470;-83
2022/06/23 00:29:03;;;;;;;0.50;0.37;;;18.60;99.90;;;;;;5077418;28;20574;-83
2022/06/23 00:31:33;;;;;;;0.50;0.30;;;18.50;99.90;;;;;;5077759;28;20550;-83
2022/06/23 00:34:04;;;;;;;0.50;0.30;;;18.40;99.90;;;;;;5077984;28;20821;-83
2022/06/23 00:36:36;;;;;;;0.50;0.30;;;18.40;99.90;;;;;;5077158;28;20451;-83
2022/06/23 00:39:04;;;;;;;0.50;0.30;;;18.30;99.90;;;;;;5077510;28;20421;-83
2022/06/23 00:41:34;;;;;;;0.50;0.40;;;18.20;99.90;;;;;;5076909;28;20467;-83
2022/06/23 00:44:05;;;;;;;0.70;0.70;;;18.20;99.90;;;;;;5077188;28;20443;-83
2022/06/23 00:46:38;;;;;;;0.50;0.30;;;18.20;99.90;;;;;;5077546;28;20440;-83
2022/06/23 00:49:15;;;;;;;0.50;0.40;;;18.20;99.90;;;;;;5077135;28;20499;-81
2022/06/23 00:51:46;;;;;;;0.50;0.30;;;18.20;99.90;;;;;;5077381;28;20494;-83
2022/06/23 00:54:20;;;;;;;0.50;0.30;;;18.10;99.90;;;;;;5076748;28;20413;-83
2022/06/23 00:56:53;;;;;;;0.50;0.40;;;18.20;99.90;;;;;;5077344;28;20555;-83
2022/06/23 00:59:24;;;;;;;0.50;0.40;;;18.10;99.90;;;;;;5077156;28;20438;-83
2022/06/23 01:01:57;;;;;;;0.50;0.30;;;18.10;99.90;;;;;;5077131;28;20474;-82
2022/06/23 01:04:33;;;;;;;0.50;0.40;;;18.10;99.90;;;;;;5076911;28;20447;-82
2022/06/23 01:07:07;;;;;;;0.50;0.40;;;18.10;99.90;;;;;;5077339;28;20443;-83
2022/06/23 01:09:46;;;;;;;0.50;0.40;;;18.10;99.90;;;;;;5077341;28;20530;-83
2022/06/23 01:12:21;;;;;;;0.50;0.40;;;18.10;99.90;;;;;;5076274;28;20893;-83
2022/06/23 01:14:54;;;;;;;0.50;0.30;;;18.10;99.90;;;;;;5077157;28;20420;-83
2022/06/23 01:17:25;;;;;;;0.50;0.30;;;18.10;99.90;;;;;;5076530;28;20522;-82
2022/06/23 01:20:21;;;;;;;0.50;0.40;;;18.10;99.90;;;;;;5076745;28;20443;-83
2022/06/23 01:23:09;;;;;;;0.50;0.30;;;18.10;99.90;;;;;;5076245;28;20566;-83
2022/06/23 01:26:06;;;;;;;0.60;0.50;;;18.10;99.90;;;;;;5077135;28;20463;-83
2022/06/23 01:28:39;;;;;;;0.53;0.40;;;18.10;99.90;;;;;;5076603;28;20848;-82
2022/06/23 01:31:13;;;;;;;0.50;0.30;;;18.10;99.90;;;;;;5077582;28;20508;-83
2022/06/23 01:33:44;;;;;;;0.50;0.33;;;18.00;99.90;;;;;;5076352;28;20434;-83
2022/06/23 01:36:16;;;;;;;0.50;0.40;;;18.00;99.90;;;;;;5076884;28;20468;-83
2022/06/23 01:38:52;;;;;;;0.50;0.30;;;17.90;99.90;;;;;;5075814;28;20468;-83
2022/06/23 01:41:24;;;;;;;0.50;0.40;;;17.80;99.90;;;;;;5076755;28;20471;-83
2022/06/23 01:43:59;;;;;;;0.50;0.40;;;17.80;99.90;;;;;;5076534;28;21039;-83
2022/06/23 01:46:32;;;;;;;0.50;0.30;;;17.80;99.90;;;;;;5076164;28;20893;-83
2022/06/23 01:49:04;;;;;;;0.50;0.40;;;17.90;99.90;;;;;;5075919;28;21036;-83
2022/06/23 01:51:41;;;;;;;0.50;0.40;;;17.90;99.90;;;;;;5076337;28;20550;-83
2022/06/23 01:54:12;;;;;;;0.50;0.30;;;17.80;99.90;;;;;;5076919;28;20512;-83
2022/06/23 01:56:48;;;;;;;0.50;0.30;;;17.80;99.90;;;;;;5076441;28;20443;-82
2022/06/23 01:59:52;;;;;;;0.50;0.30;;;17.80;99.90;;;;;;5075848;28;20462;-83
2022/06/23 02:02:29;;;;;;;0.60;0.50;;;17.80;99.90;;;;;;5075853;28;20532;-83
2022/06/23 02:05:01;;;;;;;0.60;0.40;;;17.70;99.90;;;;;;5076464;28;20948;-82
2022/06/23 02:07:35;;;;;;;0.50;0.40;;;17.70;99.90;;;;;;5077771;28;20559;-83
2022/06/23 02:10:10;;;;;;;0.50;0.30;;;17.70;99.90;;;;;;5076004;28;20458;-82
2022/06/23 02:12:49;;;;;;;0.50;0.30;;;17.60;99.90;;;;;;5075802;28;20451;-83
2022/06/23 02:15:19;;;;;;;0.50;0.30;;;17.60;99.90;;;;;;5080206;28;20519;-82
2022/06/23 02:17:52;;;;;;;0.50;0.40;;;17.60;99.90;;;;;;5079479;28;20442;-83
2022/06/23 02:20:31;;;;;;;0.53;0.43;;;17.60;99.90;;;;;;5079787;28;20500;-83
2022/06/23 02:23:11;;;;;;;0.50;0.40;;;17.50;99.90;;;;;;5080440;28;20545;-81
2022/06/23 02:25:49;;;;;;;0.50;0.30;;;17.50;99.90;;;;;;5079766;28;20496;-83
2022/06/23 02:28:25;;;;;;;0.60;0.50;;;17.50;99.90;;;;;;5079460;28;20821;-83
2022/06/23 02:31:00;;;;;;;0.50;0.40;;;17.50;99.90;;;;;;5079378;28;20960;-83
2022/06/23 02:33:35;;;;;;;0.50;0.37;;;17.40;99.90;;;;;;5079957;28;20842;-82
2022/06/23 02:36:13;;;;;;;0.50;0.30;;;17.40;99.90;;;;;;5079581;28;21015;-80
2022/06/23 02:38:45;;;;;;;0.50;0.33;;;17.40;99.90;;;;;;5079255;28;20412;-83
2022/06/23 02:41:18;;;;;;;0.50;0.33;;;17.30;99.90;;;;;;5079088;28;20493;-83
2022/06/23 02:43:49;;;;;;;0.50;0.40;;;17.30;99.90;;;;;;5079295;28;20424;-83
2022/06/23 02:46:49;;;;;;;0.50;0.33;;;17.30;99.90;;;;;;5079601;28;20554;-82
2022/06/23 02:49:48;;;;;;;1.23;1.13;;;17.30;99.90;;;;;;5079271;28;20555;-83
2022/06/23 02:52:35;;;;;;;0.50;0.30;;;17.30;99.90;;;;;;5068942;28;20492;-83
2022/06/23 02:55:28;;;;;;;0.50;0.40;;;17.20;99.90;;;;;;5077916;28;20491;-79
2022/06/23 02:58:03;;;;;;;0.50;0.33;;;17.20;99.90;;;;;;5076436;28;21005;-81
2022/06/23 03:00:35;;;;;;;0.50;0.30;;;17.20;99.90;;;;;;5077616;28;20424;-80
2022/06/23 03:03:08;;;;;;;0.50;0.40;;;17.20;99.90;;;;;;5076985;28;20498;-82
2022/06/23 03:05:45;;;;;;;0.50;0.33;;;17.10;99.90;;;;;;5077099;28;20517;-81
2022/06/23 03:08:24;;;;;;;0.50;0.40;;;17.10;99.90;;;;;;5077481;28;20460;-81
2022/06/23 03:10:57;;;;;;;0.50;0.40;;;17.20;99.90;;;;;;5076141;28;20862;-81
2022/06/23 03:13:32;;;;;;;0.50;0.37;;;17.20;99.90;;;;;;5075763;28;20476;-81
2022/06/23 03:16:06;;;;;;;0.50;0.33;;;17.20;99.90;;;;;;5075856;28;20513;-80
2022/06/23 03:18:40;;;;;;;0.50;0.40;;;17.20;99.90;;;;;;5075791;28;20428;-81
2022/06/23 03:21:16;;;;;;;0.50;0.40;;;17.20;99.90;;;;;;5076484;28;20519;-81
2022/06/23 03:23:49;;;;;;;0.50;0.40;;;17.10;99.90;;;;;;5076273;28;20487;-83
2022/06/23 03:26:22;;;;;;;0.50;0.40;;;17.10;99.90;;;;;;5075349;28;20504;-79
2022/06/23 03:28:55;;;;;;;0.50;0.30;;;17.00;99.90;;;;;;5075554;28;20837;-80
2022/06/23 03:31:26;;;;;;;0.50;0.30;;;17.00;99.90;;;;;;5075586;28;20825;-80
2022/06/23 03:34:00;;;;;;;0.50;0.30;;;17.00;99.90;;;;;;5075529;28;20510;-80
2022/06/23 03:36:33;;;;;;;0.50;0.40;;;17.00;99.90;;;;;;5075907;28;20419;-80
2022/06/23 03:41:59;;;;;;;0.50;0.40;;;17.10;99.90;;;;;;5074865;28;20931;-78
2022/06/23 03:44:35;;;;;;;0.50;0.40;;;17.00;99.90;;;;;;5075263;28;20425;-81
2022/06/23 03:47:07;;;;;;;0.50;0.30;;;17.00;99.90;;;;;;5075683;28;20430;-78
2022/06/23 03:49:43;;;;;;;0.50;0.30;;;16.90;99.90;;;;;;5074838;28;20480;-80
2022/06/23 03:52:21;;;;;;;0.50;0.40;;;16.90;99.90;;;;;;5074848;28;20491;-78
2022/06/23 03:54:53;;;;;;;0.50;0.40;;;17.00;99.90;;;;;;5074766;28;20440;-80
2022/06/23 03:57:26;;;;;;;0.50;0.40;;;17.00;99.90;;;;;;5075011;28;20433;-80
2022/06/23 04:00:07;;;;;;;0.50;0.30;;;17.10;99.90;;;;;;5074804;28;20438;-79
2022/06/23 04:02:41;;;;;;;0.50;0.40;;;17.00;99.90;;;;;;5074790;28;20463;-80
2022/06/23 04:05:18;;;;;;;0.50;0.40;;;17.00;99.90;;;;;;5074760;28;21008;-79
2022/06/23 04:07:50;;;;;;;0.50;0.40;;;17.00;99.90;;;;;;5074342;28;20527;-79
2022/06/23 04:10:24;;;;;;;0.50;0.37;;;17.10;99.90;;;;;;5074298;28;20428;-80
2022/06/23 04:12:55;;;;;;;0.50;0.30;;;17.10;99.90;;;;;;5074235;28;20466;-80
2022/06/23 04:15:27;;;;;;;0.50;0.30;;;17.20;99.90;;;;;;5074554;28;20529;-79
2022/06/23 04:17:58;;;;;;;0.50;0.30;;;17.20;99.90;;;;;;5074069;28;20918;-81
2022/06/23 04:20:32;;;;;;;0.50;0.30;;;17.20;99.90;;;;;;5074664;28;20462;-78
2022/06/23 04:23:02;;;;;;;0.50;0.30;;;17.30;99.90;;;;;;5074229;28;21018;-81
2022/06/23 04:25:40;;;;;;;0.50;0.40;;;17.30;99.90;;;;;;5074670;28;20418;-79
2022/06/23 04:28:18;;;;;;;0.50;0.40;;;17.40;99.90;;;;;;5074252;28;20475;-79
2022/06/23 04:30:47;;;;;;;0.50;0.30;;;17.40;99.90;;;;;;5075900;28;20891;-83
2022/06/23 04:33:17;;;;;;;0.50;0.40;;;17.30;99.90;;;;;;5076041;28;20467;-84
2022/06/23 04:35:48;;;;;;;0.50;0.40;;;17.30;99.90;;;;;;5075909;28;20519;-83
2022/06/23 04:38:24;;;;;;;0.50;0.40;;;17.40;99.90;;;;;;5075904;28;20501;-85
2022/06/23 04:40:58;;;;;;;0.50;0.40;;;17.50;99.90;;;;;;5076292;28;20551;-82
2022/06/23 04:43:34;;;;;;;0.50;0.40;;;17.60;99.90;;;;;;5075887;28;20490;-81
2022/06/23 04:46:05;;;;;;;0.50;0.30;;;17.70;99.90;;;;;;5076744;28;20431;-82
2022/06/23 04:48:37;;;;;;;0.50;0.30;;;17.70;99.90;;;;;;5076701;28;20587;-83
2022/06/23 04:51:09;;;;;;;0.50;0.40;;;17.80;99.90;;;;;;5076660;28;20445;-83
2022/06/23 04:53:48;;;;;;;0.50;0.50;;;17.90;99.90;;;;;;5076559;28;20526;-83
2022/06/23 04:56:24;;;;;;;0.90;0.90;;;17.90;99.90;;;;;;5075913;28;20458;-84
2022/06/23 04:58:55;;;;;;;0.50;0.30;;;18.00;99.90;;;;;;5074386;28;20474;-84
2022/06/23 05:01:26;;;;;;;0.50;0.40;;;18.00;99.90;;;;;;5075222;28;20467;-83
2022/06/23 05:03:57;;;;;;;0.50;0.30;;;18.10;99.90;;;;;;5074978;28;20487;-82
2022/06/23 05:06:36;;;;;;;0.50;0.30;;;18.10;99.90;;;;;;5075400;28;20456;-82
2022/06/23 05:09:14;;;;;;;0.50;0.33;;;18.20;99.90;;;;;;5074527;28;20460;-82
2022/06/23 05:11:47;;;;;;;0.50;0.40;;;18.30;99.90;;;;;;5074884;28;20494;-83
2022/06/23 05:14:20;;;;;;;0.60;0.50;;;18.40;99.90;;;;;;5076461;28;20488;-84
2022/06/23 05:16:51;;;;;;;0.50;0.30;;;18.40;99.90;;;;;;5076073;28;20520;-82
2022/06/23 05:19:23;;;;;;;0.50;0.40;;;18.50;99.90;;;;;;5076313;28;20432;-83
2022/06/23 05:21:54;;;;;;;0.50;0.40;;;18.60;99.90;;;;;;5086669;28;20480;-81
2022/06/23 05:24:26;;;;;;;0.60;0.50;;;18.70;99.90;;;;;;5076434;28;20431;-82
2022/06/23 05:26:57;;;;;;;0.50;0.40;;;18.90;99.90;;;;;;5077732;28;20840;-83
2022/06/23 05:29:28;;;;;;;0.50;0.37;;;19.00;99.90;;;;;;5077411;28;20550;-82
2022/06/23 05:31:58;;;;;;;0.50;0.30;;;19.00;99.90;;;;;;5077247;28;20471;-83
2022/06/23 05:34:30;;;;;;;0.50;0.30;;;19.00;99.90;;;;;;5079912;28;20420;-84
2022/06/23 05:37:07;;;;;;;0.50;0.40;;;19.20;99.90;;;;;;5080946;28;20435;-82
2022/06/23 05:39:43;;;;;;;0.50;0.30;;;19.30;99.90;;;;;;5076394;28;20424;-84
2022/06/23 05:42:17;;;;;;;0.50;0.30;;;19.40;99.90;;;;;;5076912;28;20552;-83
2022/06/23 05:44:49;;;;;;;0.50;0.30;;;19.60;99.90;;;;;;5075397;28;20423;-85
2022/06/23 05:47:19;;;;;;;0.50;0.30;;;19.60;99.90;;;;;;5075313;28;20973;-81
2022/06/23 05:49:49;;;;;;;0.73;0.67;;;19.80;99.90;;;;;;5078712;28;20527;-81
2022/06/23 05:52:21;;;;;;;0.50;0.30;;;20.00;99.90;;;;;;5079332;28;20539;-83
2022/06/23 05:54:54;;;;;;;0.50;0.30;;;20.20;99.90;;;;;;5079073;28;20834;-86
2022/06/23 05:57:24;;;;;;;0.50;0.30;;;20.30;99.90;;;;;;5078765;28;20455;-84
2022/06/23 05:59:58;;;;;;;0.50;0.40;;;20.50;99.90;;;;;;5079424;28;20504;-84
2022/06/23 06:02:30;;;;;;;0.50;0.30;;;20.70;99.90;;;;;;5079218;28;20551;-85
2022/06/23 06:04:59;;;;;;;0.50;0.30;;;20.80;99.90;;;;;;5079251;28;20435;-83
2022/06/23 06:07:32;;;;;;;0.50;0.30;;;21.00;99.90;;;;;;5079004;28;20519;-83
2022/06/23 06:10:02;;;;;;;0.50;0.30;;;21.20;99.90;;;;;;5079194;28;20478;-83
2022/06/23 06:12:35;;;;;;;0.50;0.30;;;21.40;99.90;;;;;;5078772;28;20985;-83
2022/06/23 06:15:05;;;;;;;0.50;0.40;;;21.60;99.90;;;;;;5078977;28;20439;-83
2022/06/23 06:17:34;;;;;;;0.50;0.30;;;21.80;99.90;;;;;;5079077;28;20521;-83
2022/06/23 06:20:06;;;;;;;1.17;1.17;;;22.00;99.90;;;;;;5078981;28;20440;-83
2022/06/23 06:22:58;;;;;;;0.50;0.33;;;22.20;99.90;;;;;;5078490;28;21060;-83
2022/06/23 06:25:28;;;;;;;2.20;1.63;;;22.50;99.90;;;;;;5078565;28;20460;-83
2022/06/23 06:28:09;;;;;;;0.70;0.50;;;22.80;99.90;;;;;;5079016;28;20496;-83
2022/06/23 06:30:40;;;;;;;0.83;0.83;;;23.00;99.90;;;;;;5079192;28;20535;-83
2022/06/23 06:33:10;;;;;;;0.50;0.30;;;23.30;99.90;;;;;;5078792;28;20460;-84
2022/06/23 06:35:41;;;;;;;0.50;0.40;;;23.60;99.90;;;;;;5078873;28;20874;-85
2022/06/23 06:38:12;;;;;;;0.50;0.30;;;24.00;99.90;;;;;;5078114;28;20522;-80
2022/06/23 06:40:43;;;;;;;0.50;0.30;;;25.00;99.90;;;;;;5079067;28;20420;-85
2022/06/23 06:43:15;;;;;;;0.50;0.30;;;26.90;97.80;;;;;;5077536;28;20485;-85
2022/06/23 06:45:42;;;;;;;0.50;0.30;;;28.60;88.30;;;;;;5079007;28;20817;-83
2022/06/23 06:48:13;;;;;;;0.50;0.30;;;30.60;80.80;;;;;;5078099;28;20446;-78
2022/06/23 06:50:44;;;;;;;0.80;0.80;;;32.50;72.90;;;;;;5078985;28;20519;-83
2022/06/23 06:53:18;;;;;;;0.50;0.30;;;33.90;63.40;;;;;;5078650;28;20499;-80
2022/06/23 06:55:52;;;;;;;0.50;0.30;;;35.30;58.50;;;;;;5079398;28;20467;-82
2022/06/23 06:58:25;;;;;;;0.50;0.30;;;36.10;54.30;;;;;;5078869;28;20454;-82
2022/06/23 07:00:56;;;;;;;0.40;0.30;;;36.70;53.70;;;;;;5078551;28;20480;-81
2022/06/23 07:03:26;;;;;;;0.50;0.30;;;36.90;52.60;;;;;;5078965;28;20444;-85
2022/06/23 07:05:56;;;;;;;0.50;0.30;;;36.90;52.30;;;;;;5079696;28;20472;-83
2022/06/23 07:08:28;;;;;;;0.50;0.30;;;37.50;51.30;;;;;;5079606;28;20472;-83
2022/06/23 07:11:01;;;;;;;0.50;0.40;;;38.30;50.20;;;;;;5078352;28;20555;-82
2022/06/23 07:13:35;;;;;;;0.50;0.30;;;37.80;50.20;;;;;;5078234;28;20434;-82
2022/06/23 07:16:11;;;;;;;0.50;0.30;;;37.10;51.20;;;;;;5078966;28;20467;-81
2022/06/23 07:18:43;;;;;;;0.50;0.40;;;36.50;52.00;;;;;;5078146;28;20436;-85
2022/06/23 07:21:18;;;;;;;0.47;0.30;;;36.80;52.10;;;;;;5079904;28;20424;-83
2022/06/23 07:23:51;;;;;;;0.43;0.30;;;37.40;51.70;;;;;;5079461;28;20416;-81
2022/06/23 07:26:34;;;;;;;0.40;0.30;;;36.80;51.90;;;;;;5078969;28;20843;-84
2022/06/23 07:29:08;;;;;;;0.50;0.30;;;35.70;53.50;;;;;;5079091;28;20425;-84
2022/06/23 07:31:44;;;;;;;0.50;0.30;;;36.00;53.50;;;;;;5079694;28;20497;-83
2022/06/23 07:34:13;;;;;;;1.03;0.40;;;36.20;53.60;;;;;;5078170;28;20456;-82
2022/06/23 07:36:46;;;;;;;1.30;1.30;;;36.50;53.20;;;;;;5079208;28;20436;-83
2022/06/23 07:39:18;;;;;;;0.60;0.57;;;36.90;53.20;;;;;;5078825;28;20439;-85
2022/06/23 07:41:51;;;;;;;0.50;0.50;;;37.40;51.90;;;;;;5079934;28;20466;-83
2022/06/23 07:44:22;;;;;;;1.00;0.63;;;36.40;52.50;;;;;;5079629;28;20460;-83
2022/06/23 07:46:49;;;;;;;0.50;0.40;;;35.90;53.40;;;;;;5079323;28;20475;-83
2022/06/23 07:49:17;;;;;;;0.70;0.40;;;35.30;53.60;;;;;;5079980;28;22331;-83
2022/06/23 07:51:44;;;;;;;0.50;0.40;;;35.20;54.90;;;;;;5079818;28;20482;-84
2022/06/23 07:54:16;;;;;;;2.50;2.30;;;36.20;54.50;;;;;;5080809;28;20460;-84
2022/06/23 07:56:43;;;;;;;3.43;1.27;;;36.60;53.50;;;;;;5079099;28;20444;-83
2022/06/23 07:59:18;;;;;;;0.50;0.30;;;36.50;52.80;;;;;;5069708;28;20444;-82
2022/06/23 08:01:49;;;;;;;0.47;0.40;;;36.90;53.50;;;;;;5057895;28;20452;-81
2022/06/23 08:04:24;;;;;;;0.40;0.30;;;37.60;51.70;;;;;;5056685;28;20489;-82
2022/06/23 08:06:51;;;;;;;0.47;0.40;;;37.70;51.50;;;;;;5057001;28;20523;-81
2022/06/23 08:09:24;;;;;;;0.63;0.63;;;37.50;51.90;;;;;;5057808;28;20469;-82
2022/06/23 08:14:41;;;;;;;0.40;0.30;;;38.10;52.20;;;;;;5059651;28;20421;-80
2022/06/23 08:17:13;;;;;;;0.40;0.30;;;38.60;50.90;;;;;;5058370;28;20425;-80
2022/06/23 08:19:45;;;;;;;0.50;0.30;;;39.10;49.60;;;;;;5058536;28;20413;-81
2022/06/23 08:22:15;;;;;;;0.50;0.47;;;37.70;50.30;;;;;;5057831;28;20548;-82
2022/06/23 08:24:45;;;;;;;1.17;1.17;;;37.40;50.70;;;;;;5058595;28;20445;-81
2022/06/23 08:27:14;;;;;;;0.50;0.40;;;37.50;51.00;;;;;;5057820;28;20480;-83
2022/06/23 08:29:48;;;;;;;2.90;0.43;;;38.10;50.70;;;;;;5057054;28;20591;-81
2022/06/23 08:32:15;;;;;;;1.17;0.80;;;37.50;50.10;;;;;;5056338;28;20552;-79
2022/06/23 08:34:50;;;;;;;0.40;0.30;;;37.60;49.60;;;;;;5056920;28;20473;-83
2022/06/23 08:37:21;;;;;;;0.40;0.30;;;37.60;49.90;;;;;;5067149;28;20453;-82
2022/06/23 08:39:55;;;;;;;0.40;0.30;;;38.20;49.40;;;;;;5061077;28;20954;-82
2022/06/23 08:42:27;;;;;;;0.40;0.30;;;38.10;49.30;;;;;;5061172;28;20469;-83
2022/06/23 08:45:06;;;;;;;0.93;0.83;;;38.50;48.60;;;;;;5060894;28;20428;-80
2022/06/23 08:47:44;;;;;;;0.40;0.30;;;38.90;48.70;;;;;;5060638;28;20433;-82
2022/06/23 08:50:19;;;;;;;0.40;0.30;;;39.30;49.20;;;;;;5059736;28;20479;-80
2022/06/23 08:52:52;;;;;;;0.40;0.30;;;40.00;47.80;;;;;;5060707;28;20465;-81
2022/06/23 08:55:25;;;;;;;0.40;0.30;;;40.60;46.50;;;;;;5058872;28;20452;-81
2022/06/23 08:57:59;;;;;;;0.40;0.30;;;40.30;47.10;;;;;;5058859;28;20520;-83
2022/06/23 09:00:40;;;;;;;1.93;1.87;;;39.80;47.20;;;;;;5059614;28;20864;-81
2022/06/23 09:03:12;;;;;;;0.40;0.37;;;38.90;47.90;;;;;;5058740;28;20460;-80
2022/06/23 09:05:44;;;;;;;0.47;0.37;;;39.60;47.90;;;;;;5058591;28;20505;-80
2022/06/23 09:08:20;;;;;;;0.50;0.40;;;39.90;46.60;;;;;;5059211;28;20431;-82
2022/06/23 09:10:55;;;;;;;0.77;0.70;;;39.00;46.70;;;;;;5058993;28;20897;-84
2022/06/23 09:13:39;;;;;;;0.50;0.43;;;38.30;47.10;;;;;;5057295;28;20460;-82
2022/06/23 09:16:22;;;;;;;0.50;0.50;;;38.40;48.10;;;;;;5056935;28;20855;-80
2022/06/23 09:19:14;;;;;;;0.40;0.30;;;38.80;46.80;;;;;;5058627;28;20535;-81
2022/06/23 09:21:58;;;;;;;0.40;0.30;;;39.80;47.40;;;;;;5058314;28;20455;-80
2022/06/23 09:24:58;;;;;;;0.40;0.30;;;41.40;45.80;;;;;;5057589;28;20437;-79
2022/06/23 09:28:03;;;;;;;0.40;0.30;;;42.30;44.80;;;;;;5056886;28;20448;-82
2022/06/23 09:30:37;;;;;;;0.40;0.30;;;42.00;44.10;;;;;;5054996;28;20496;-82
2022/06/23 09:33:22;;;;;;;0.50;0.50;;;42.20;43.30;;;;;;5057811;28;20491;-82
2022/06/23 09:36:18;;;;;;;0.50;0.47;;;42.20;43.50;;;;;;5057286;28;20418;-80
2022/06/23 09:39:11;;;;;;;0.40;0.40;;;42.50;43.00;;;;;;5054562;28;20450;-80
2022/06/23 09:42:09;;;;;;;0.40;0.40;;;43.30;41.90;;;;;;5055955;28;20464;-85
2022/06/23 09:45:09;;;;;;;0.40;0.30;;;43.20;42.70;;;;;;5055019;28;20461;-81
2022/06/23 09:47:57;;;;;;;0.40;0.30;;;42.30;42.70;;;;;;5055626;28;20504;-81
2022/06/23 09:50:44;;;;;;;0.40;0.30;;;42.00;42.60;;;;;;5054898;28;20515;-82
2022/06/23 09:53:41;;;;;;;0.90;0.80;;;42.20;42.50;;;;;;5054652;28;20540;-80
2022/06/23 09:56:32;;;;;;;0.40;0.30;;;42.20;42.10;;;;;;5054898;28;20531;-83
2022/06/23 09:59:41;;;;;;;0.40;0.30;;;41.80;42.10;;;;;;5054456;28;20459;-81
2022/06/23 10:02:19;;;;;;;0.40;0.30;;;41.00;42.60;;;;;;5053017;28;20540;-84
2022/06/23 10:05:02;;;;;;;0.40;0.30;;;41.20;42.60;;;;;;5053228;28;20493;-81
2022/06/23 10:07:55;;;;;;;0.80;0.80;;;41.50;42.90;;;;;;5053544;28;20444;-81
2022/06/23 10:10:45;;;;;;;0.40;0.30;;;42.30;40.70;;;;;;5052924;28;20555;-80
2022/06/23 10:13:31;;;;;;;0.40;0.30;;;42.00;42.40;;;;;;5053017;28;20524;-80
2022/06/23 10:16:14;;;;;;;0.40;0.30;;;41.50;41.90;;;;;;5054377;28;20425;-81
2022/06/23 10:19:03;;;;;;;0.40;0.30;;;41.00;42.00;;;;;;5055383;28;20520;-81
2022/06/23 10:21:45;;;;;;;2.00;0.47;;;40.90;42.00;;;;;;5052768;28;20827;-80
2022/06/23 10:24:40;;;;;;;0.50;0.40;;;41.50;41.60;;;;;;5053196;28;20917;-81
2022/06/23 10:27:25;;;;;;;0.40;0.30;;;40.80;42.00;;;;;;5053775;28;20517;-79
2022/06/23 10:30:10;;;;;;;0.50;0.40;;;40.40;42.30;;;;;;5052925;28;20447;-79
2022/06/23 10:32:54;;;;;;;0.50;0.40;;;40.00;42.10;;;;;;5053409;28;20551;-80
2022/06/23 10:35:47;;;;;;;0.40;0.30;;;39.60;42.50;;;;;;5055725;28;20435;-79
2022/06/23 10:38:44;;;;;;;0.60;0.60;;;39.20;42.80;;;;;;5055986;28;20440;-80
2022/06/23 10:41:50;;;;;;;0.50;0.50;;;39.10;43.10;;;;;;5018014;28;1110473;-80
2022/06/23 10:44:48;;;;;;;0.50;0.40;;;39.40;43.60;;;;;;5059375;28;20282;-81
2022/06/23 10:47:33;;;;;;;0.40;0.40;;;39.90;42.90;;;;;;5046745;28;20449;-80
2022/06/23 10:50:16;;;;;;;0.40;0.30;;;40.20;41.50;;;;;;5057194;28;20528;-80
2022/06/23 10:53:09;;;;;;;0.40;0.30;;;40.10;42.70;;;;;;5058273;28;20496;-82
2022/06/23 10:55:54;;;;;;;0.40;0.30;;;40.50;42.70;;;;;;5059777;28;20441;-81
2022/06/23 10:58:44;;;;;;;0.40;0.30;;;41.00;41.50;;;;;;5058229;28;20504;-81
2022/06/23 11:01:32;;;;;;;0.40;0.30;;;41.20;41.00;;;;;;5058093;28;20958;-82
2022/06/23 11:04:18;;;;;;;0.40;0.30;;;40.60;41.10;;;;;;5058897;28;20532;-80
2022/06/23 11:07:06;;;;;;;0.60;0.40;;;40.60;41.00;;;;;;5058362;28;20443;-81
2022/06/23 11:09:45;;;;;;;0.40;0.30;;;41.00;40.30;;;;;;5060199;28;20436;-83
2022/06/23 11:12:25;;;;;;;0.40;0.30;;;41.90;40.30;;;;;;5059381;28;21052;-83
2022/06/23 11:15:05;;;;;;;0.40;0.30;;;42.40;39.50;;;;;;5060282;28;20448;-81
2022/06/23 11:17:39;;;;;;;0.40;0.30;;;41.90;39.20;;;;;;5058355;28;20440;-83
2022/06/23 11:20:21;;;;;;;0.40;0.30;;;41.90;39.10;;;;;;5059315;28;20468;-82
2022/06/23 11:22:54;;;;;;;0.40;0.40;;;42.10;39.40;;;;;;5059725;28;20468;-84
2022/06/23 11:25:40;;;;;;;1.70;0.83;;;41.50;39.70;;;;;;5058570;28;20461;-82
2022/06/23 11:28:21;;;;;;;0.40;0.37;;;40.90;40.60;;;;;;5058692;28;20516;-84
2022/06/23 11:31:06;;;;;;;0.40;0.30;;;39.60;40.60;;;;;;5058508;28;20997;-82
2022/06/23 11:33:47;;;;;;;0.77;0.47;;;39.40;40.70;;;;;;5056718;28;20951;-81
2022/06/23 11:36:23;;;;;;;0.50;0.40;;;39.00;40.80;;;;;;5057165;28;20425;-87
2022/06/23 11:39:11;;;;;;;0.70;0.33;;;38.00;41.30;;;;;;5057765;28;20870;-85
2022/06/23 11:42:08;;;;;;;0.40;0.30;;;37.90;43.00;;;;;;5058017;28;20869;-83
2022/06/23 11:45:03;;;;;;;0.43;0.30;;;39.00;43.00;;;;;;5058518;28;20432;-81
2022/06/23 11:47:42;;;;;;;0.40;0.30;;;39.30;41.50;;;;;;5057220;28;20930;-82
2022/06/23 11:50:15;;;;;;;0.40;0.30;;;39.10;42.20;;;;;;5057923;28;20497;-84
2022/06/23 11:52:56;;;;;;;2.40;2.20;;;39.40;42.90;;;;;;5058000;28;20537;-84
2022/06/23 11:55:39;;;;;;;0.40;0.30;;;39.50;42.00;;;;;;5058107;28;20524;-81
2022/06/23 11:58:41;;;;;;;3.80;1.33;;;39.40;42.60;;;;;;5057918;28;20512;-84
2022/06/23 12:01:15;;;;;;;0.40;0.30;;;39.30;42.30;;;;;;5056025;28;20926;-82
2022/06/23 12:04:10;;;;;;;0.40;0.30;;;39.50;42.20;;;;;;5058580;28;20452;-83
2022/06/23 12:06:50;;;;;;;1.10;0.50;;;40.30;42.10;;;;;;5057888;28;20491;-82
2022/06/23 12:09:26;;;;;;;1.73;0.53;;;40.70;41.20;;;;;;5057909;28;20432;-82
2022/06/23 12:11:54;;;;;;;0.67;0.60;;;39.80;41.30;;;;;;5057216;28;20567;-82
2022/06/23 12:14:22;;;;;;;0.40;0.30;;;39.50;41.50;;;;;;5058215;28;20437;-83
2022/06/23 12:16:55;;;;;;;3.23;2.10;;;38.70;42.90;;;;;;5057307;28;20473;-84
2022/06/23 12:19:32;;;;;;;0.90;0.90;;;39.00;42.60;;;;;;5056123;28;20476;-83
2022/06/23 12:22:07;;;;;;;0.50;0.50;;;39.80;42.80;;;;;;5057675;28;20495;-84
2022/06/23 12:24:43;;;;;;;0.50;0.50;;;39.80;42.30;;;;;;5058509;28;20512;-84
2022/06/23 12:27:21;;;;;;;0.40;0.30;;;39.50;42.50;;;;;;5058435;28;20536;-82
2022/06/23 12:29:54;;;;;;;0.40;0.30;;;40.00;42.70;;;;;;5057516;28;20504;-82
2022/06/23 12:32:28;;;;;;;0.40;0.30;;;40.00;42.20;;;;;;5056678;28;20563;-83
2022/06/23 12:35:04;;;;;;;0.60;0.60;;;40.20;41.80;;;;;;5056964;28;20533;-85
2022/06/23 12:37:39;;;;;;;0.40;0.30;;;40.30;41.00;;;;;;5056721;28;20472;-84
2022/06/23 12:40:13;;;;;;;0.80;0.77;;;40.80;41.70;;;;;;5056646;28;20481;-84
2022/06/23 12:42:45;;;;;;;0.43;0.33;;;39.60;41.80;;;;;;5056688;28;20998;-85
2022/06/23 12:45:39;;;;;;;0.50;0.40;;;39.40;42.60;;;;;;5056557;28;20619;-84
2022/06/23 12:48:41;;;;;;;0.40;0.30;;;39.70;42.10;;;;;;5056296;28;20527;-80
2022/06/23 12:51:20;;;;;;;0.50;0.50;;;39.80;43.00;;;;;;5057730;28;20467;-80
2022/06/23 12:54:02;;;;;;;0.40;0.30;;;39.90;42.30;;;;;;5057671;28;20524;-83
2022/06/23 12:56:47;;;;;;;0.40;0.27;;;39.40;43.10;;;;;;5075339;28;20512;-83
2022/06/23 12:59:32;;;;;;;0.40;0.30;;;40.20;43.20;;;;;;5077004;28;20514;-79
2022/06/23 13:02:09;;;;;;;0.40;0.40;;;40.50;42.20;;;;;;5076829;28;20456;-79
2022/06/23 13:04:45;;;;;;;0.40;0.30;;;40.40;42.10;;;;;;5076423;28;20519;-81
2022/06/23 13:07:18;;;;;;;0.40;0.30;;;41.10;42.30;;;;;;5075771;28;20531;-81
2022/06/23 13:09:51;;;;;;;0.40;0.30;;;41.60;42.00;;;;;;5076938;28;20903;-82
2022/06/23 13:12:23;;;;;;;0.50;0.43;;;41.70;41.00;;;;;;5075427;28;20567;-83
2022/06/23 13:14:55;;;;;;;1.17;0.50;;;40.60;42.10;;;;;;5076760;28;20504;-84
2022/06/23 13:17:32;;;;;;;0.80;0.80;;;40.20;42.70;;;;;;5077174;28;20814;-87
2022/06/23 13:20:05;;;;;;;0.40;0.30;;;40.00;42.80;;;;;;5076658;28;20916;-85
2022/06/23 13:22:48;;;;;;;0.40;0.40;;;39.20;43.40;;;;;;5076818;28;20539;-82
2022/06/23 13:25:21;;;;;;;0.50;0.40;;;39.70;43.50;;;;;;5075958;28;20642;-85
2022/06/23 13:27:51;;;;;;;0.40;0.30;;;40.00;42.70;;;;;;5076977;28;20849;-84
2022/06/23 13:30:22;;;;;;;0.40;0.30;;;39.90;42.60;;;;;;5076356;28;20519;-81
2022/06/23 13:33:00;;;;;;;0.50;0.50;;;39.60;43.10;;;;;;5078680;28;20562;-85
2022/06/23 13:35:35;;;;;;;0.40;0.30;;;39.40;43.40;;;;;;5075986;28;20535;-83
2022/06/23 13:38:15;;;;;;;0.40;0.30;;;38.70;43.70;;;;;;5074126;28;20474;-83
2022/06/23 13:40:48;;;;;;;4.00;0.60;;;38.30;44.20;;;;;;5071774;28;20561;-83
2022/06/23 13:43:26;;;;;;;0.50;0.50;;;38.30;44.20;;;;;;5074895;28;20480;-83